createdAt,value
2023-05-09T00:01:31.656Z,1002.49
2023-05-09T00:06:31.295Z,1002.42
2023-05-09T00:11:31.265Z,1002.45
2023-05-09T00:16:31.223Z,1002.40
2023-05-09T00:21:31.135Z,1002.38
2023-05-09T00:26:31.021Z,1002.38
2023-05-09T00:31:31.133Z,1002.42
2023-05-09T00:36:30.934Z,1002.41
2023-05-09T00:41:33.867Z,1002.35
2023-05-09T00:46:30.862Z,1002.31
2023-05-09T00:51:30.716Z,1002.24
2023-05-09T00:56:30.602Z,1002.28
2023-05-09T01:01:31.462Z,1002.20
2023-05-09T01:06:30.526Z,1002.23
2023-05-09T01:11:30.487Z,1002.20
2023-05-09T01:16:30.463Z,1002.15
2023-05-09T01:21:30.392Z,1002.14
2023-05-09T01:26:30.222Z,1002.08
2023-05-09T01:31:30.266Z,1002.04
2023-05-09T01:36:30.103Z,1002.00
2023-05-09T01:41:33.117Z,1001.94
2023-05-09T01:46:29.997Z,1001.95
2023-05-09T01:51:29.961Z,1001.97
2023-05-09T01:56:29.928Z,1002.01
2023-05-09T02:01:29.851Z,1001.98
2023-05-09T02:06:29.755Z,1001.90
2023-05-09T02:11:30.353Z,1001.86
2023-05-09T02:16:29.621Z,1001.83
2023-05-09T02:21:29.555Z,1001.78
2023-05-09T02:26:29.451Z,1001.83
2023-05-09T02:31:29.435Z,1001.72
2023-05-09T02:36:29.361Z,1001.76
2023-05-09T02:41:32.261Z,1001.79
2023-05-09T02:46:29.239Z,1001.84
2023-05-09T02:51:29.146Z,1001.92
2023-05-09T02:56:29.050Z,1001.84
2023-05-09T03:01:29.066Z,1001.83
2023-05-09T03:06:28.946Z,1001.87
2023-05-09T03:11:28.888Z,1001.77
2023-05-09T03:16:28.848Z,1001.79
2023-05-09T03:21:29.916Z,1001.69
2023-05-09T03:26:28.683Z,1001.67
2023-05-09T03:31:28.661Z,1001.68
2023-05-09T03:36:28.599Z,1001.66
2023-05-09T03:41:31.570Z,1001.57
2023-05-09T03:46:28.459Z,1001.63
2023-05-09T03:51:28.441Z,1001.57
2023-05-09T03:56:28.316Z,1001.58
2023-05-09T04:01:28.596Z,1001.59
2023-05-09T04:06:28.138Z,1001.54
2023-05-09T04:11:28.130Z,1001.44
2023-05-09T04:16:28.067Z,1001.32
2023-05-09T04:21:28.104Z,1001.32
2023-05-09T04:26:27.910Z,1001.29
2023-05-09T04:31:27.917Z,1001.25
2023-05-09T04:36:27.768Z,1001.20
2023-05-09T04:41:30.726Z,1001.13
2023-05-09T04:46:27.665Z,1001.12
2023-05-09T04:51:27.615Z,1000.96
2023-05-09T04:56:27.453Z,1000.89
2023-05-09T05:01:27.459Z,1000.79
2023-05-09T05:06:28.192Z,1000.77
2023-05-09T05:11:27.401Z,1000.70
2023-05-09T05:16:27.275Z,1000.67
2023-05-09T05:21:27.193Z,1000.61
2023-05-09T05:26:27.121Z,1000.49
2023-05-09T05:31:27.124Z,1000.48
2023-05-09T05:36:27.151Z,1000.43
2023-05-09T05:41:31.089Z,1000.33
2023-05-09T05:46:26.945Z,1000.28
2023-05-09T05:51:26.841Z,1000.26
2023-05-09T05:56:26.703Z,1000.13
2023-05-09T06:01:27.151Z,1000.06
2023-05-09T06:06:26.539Z,1000.04
2023-05-09T06:11:26.538Z,1000.04
2023-05-09T06:16:26.451Z,999.97
2023-05-09T06:21:26.394Z,999.90
2023-05-09T06:26:26.249Z,999.76
2023-05-09T06:31:26.367Z,999.70
2023-05-09T06:36:26.275Z,999.63
2023-05-09T06:41:29.159Z,999.59
2023-05-09T06:46:26.174Z,999.46
2023-05-09T06:51:26.532Z,999.37
2023-05-09T06:56:26.033Z,999.35
2023-05-09T07:01:25.974Z,999.23
2023-05-09T07:06:25.816Z,999.11
2023-05-09T07:11:25.754Z,999.16
2023-05-09T07:16:25.714Z,999.11
2023-05-09T07:21:25.690Z,999.01
2023-05-09T07:26:25.516Z,998.97
2023-05-09T07:31:25.827Z,998.95
2023-05-09T07:36:25.402Z,998.78
2023-05-09T07:41:28.411Z,998.70
2023-05-09T07:46:25.310Z,998.61
2023-05-09T07:51:25.269Z,998.51
2023-05-09T07:56:25.176Z,998.42
2023-05-09T08:01:25.142Z,998.35
2023-05-09T08:06:24.993Z,998.23
2023-05-09T08:11:24.983Z,998.13
2023-05-09T08:16:24.935Z,998.08
2023-05-09T08:21:24.895Z,998.02
2023-05-09T08:26:24.804Z,997.90
2023-05-09T08:31:24.772Z,997.64
2023-05-09T08:36:24.612Z,997.61
2023-05-09T08:41:27.593Z,997.59
2023-05-09T08:46:24.518Z,997.60
2023-05-09T08:51:24.445Z,997.59
2023-05-09T08:56:24.377Z,997.67
2023-05-09T09:01:24.461Z,997.55
2023-05-09T09:06:24.200Z,997.51
2023-05-09T09:11:25.325Z,997.46
2023-05-09T09:16:24.128Z,997.47
2023-05-09T09:21:24.403Z,997.42
2023-05-09T09:26:24.001Z,997.41
2023-05-09T09:31:24.040Z,997.41
2023-05-09T09:36:23.974Z,997.26
2023-05-09T09:41:26.875Z,997.15
2023-05-09T09:46:23.853Z,997.07
2023-05-09T09:51:23.834Z,997.03
2023-05-09T09:56:23.672Z,996.96
2023-05-09T10:01:23.658Z,996.94
2023-05-09T10:06:23.441Z,996.89
2023-05-09T10:11:23.420Z,996.79
2023-05-09T10:16:35.703Z,996.71
2023-05-09T10:21:24.521Z,996.65
2023-05-09T10:26:23.184Z,996.57
2023-05-09T10:31:23.451Z,996.59
2023-05-09T10:36:23.129Z,996.56
2023-05-09T10:41:26.413Z,996.51
2023-05-09T10:46:22.973Z,996.40
2023-05-09T10:51:22.891Z,996.28
2023-05-09T10:56:22.805Z,996.16
2023-05-09T11:01:22.786Z,996.11
2023-05-09T11:06:22.664Z,995.99
2023-05-09T11:11:22.652Z,995.97
2023-05-09T11:16:22.568Z,995.86
2023-05-09T11:21:22.594Z,995.73
2023-05-09T11:26:22.377Z,995.82
2023-05-09T11:31:22.417Z,995.64
2023-05-09T11:36:22.273Z,995.56
2023-05-09T11:41:25.308Z,995.58
2023-05-09T11:46:22.232Z,995.44
2023-05-09T11:51:28.151Z,995.31
2023-05-09T11:56:22.025Z,995.27
2023-05-09T12:01:21.932Z,995.21
2023-05-09T12:06:21.828Z,995.09
2023-05-09T12:11:21.826Z,994.98
2023-05-09T12:16:22.305Z,994.91
2023-05-09T12:21:21.760Z,994.77
2023-05-09T12:26:21.545Z,994.61
2023-05-09T12:31:21.563Z,994.62
2023-05-09T12:36:21.411Z,994.48
2023-05-09T12:46:21.368Z,994.45
2023-05-09T12:51:21.307Z,994.40
2023-05-09T12:56:21.154Z,994.31
2023-05-09T13:01:21.214Z,994.18
2023-05-09T13:06:21.053Z,994.09
2023-05-09T13:11:20.999Z,994.02
2023-05-09T13:16:20.889Z,994.03
2023-05-09T13:21:20.851Z,993.94
2023-05-09T13:26:20.761Z,993.89
2023-05-09T13:31:20.792Z,993.79
2023-05-09T13:36:20.593Z,993.79
2023-05-09T13:41:23.670Z,993.72
2023-05-09T13:46:20.552Z,993.64
2023-05-09T13:51:20.905Z,993.54
2023-05-09T13:56:20.382Z,993.49
2023-05-09T14:01:20.289Z,993.43
2023-05-09T14:06:20.209Z,993.40
2023-05-09T14:11:20.203Z,993.40
2023-05-09T14:16:20.109Z,993.34
2023-05-09T14:21:20.043Z,993.31
2023-05-09T14:26:19.918Z,993.31
2023-05-09T14:31:19.969Z,993.11
2023-05-09T14:36:19.868Z,993.15
2023-05-09T14:41:23.627Z,992.98
2023-05-09T14:46:19.998Z,992.91
2023-05-09T14:51:19.619Z,992.86
2023-05-09T14:57:51.567Z,992.79
2023-05-09T15:02:51.413Z,992.72
2023-05-09T15:07:51.355Z,992.70
2023-05-09T15:12:51.437Z,992.58
2023-05-09T15:17:51.443Z,992.44
2023-05-09T15:22:51.147Z,992.40
2023-05-09T15:27:51.108Z,992.34
2023-05-09T15:32:51.110Z,992.28
2023-05-09T15:37:50.963Z,992.23
2023-05-09T15:42:50.906Z,992.19
2023-05-09T15:47:54.022Z,992.20
2023-05-09T15:52:50.834Z,992.08
2023-05-09T15:57:50.740Z,992.00
2023-05-09T16:02:50.705Z,991.99
2023-05-09T16:07:50.618Z,991.90
2023-05-09T16:12:50.542Z,991.87
2023-05-09T16:17:50.450Z,991.80
2023-05-09T16:22:50.353Z,991.68
2023-05-09T16:27:50.314Z,991.73
2023-05-09T16:32:50.283Z,991.66
2023-05-09T16:37:50.264Z,991.61
2023-05-09T16:42:50.140Z,991.52
2023-05-09T16:47:53.133Z,991.50
2023-05-09T16:52:49.970Z,991.45
2023-05-09T16:57:51.465Z,991.42
2023-05-09T17:02:49.928Z,991.37
2023-05-09T17:07:49.812Z,991.40
2023-05-09T17:12:49.948Z,991.34
2023-05-09T17:17:49.746Z,991.29
2023-05-09T17:22:50.183Z,991.22
2023-05-09T17:27:49.614Z,991.24
2023-05-09T17:32:49.467Z,991.24
2023-05-09T17:37:49.422Z,991.23
2023-05-09T17:42:49.313Z,991.23
2023-05-09T17:47:52.362Z,991.23
2023-05-09T17:52:49.164Z,991.25
2023-05-09T17:57:49.140Z,991.30
2023-05-09T18:02:49.074Z,991.29
2023-05-09T18:07:49.611Z,991.31
2023-05-09T18:12:48.922Z,991.23
2023-05-09T18:17:48.913Z,991.16
2023-05-09T18:22:48.789Z,991.18
2023-05-09T18:27:48.813Z,991.21
2023-05-09T18:32:48.751Z,991.25
2023-05-09T18:37:48.663Z,991.31
2023-05-09T18:42:48.536Z,991.29
2023-05-09T18:47:51.533Z,991.29
2023-05-09T18:52:48.410Z,991.27
2023-05-09T18:57:48.363Z,991.31
2023-05-09T19:02:48.277Z,991.34
2023-05-09T19:07:48.230Z,991.33
2023-05-09T19:12:48.182Z,991.33
2023-05-09T19:17:49.779Z,991.33
2023-05-09T19:22:47.978Z,991.29
2023-05-09T19:27:47.973Z,991.31
2023-05-09T19:32:47.888Z,991.30
2023-05-09T19:37:47.862Z,991.30
2023-05-09T19:42:47.769Z,991.32
2023-05-09T19:47:50.762Z,991.25
2023-05-09T19:52:47.730Z,991.26
2023-05-09T19:57:47.794Z,991.26
2023-05-09T20:02:47.601Z,991.24
2023-05-09T20:17:22.165Z,991.15
2023-05-09T20:22:20.050Z,991.10
2023-05-09T20:27:20.972Z,991.19
2023-05-09T20:32:19.904Z,991.20
2023-05-09T20:37:19.888Z,991.15
2023-05-09T20:42:19.813Z,991.18
2023-05-09T20:47:19.794Z,991.20
2023-05-09T20:52:19.694Z,991.19
2023-05-09T20:57:19.620Z,991.20
2023-05-09T21:02:19.581Z,991.14
2023-05-09T21:07:22.579Z,991.11
2023-05-09T21:12:19.512Z,991.04
2023-05-09T21:17:19.434Z,990.95
2023-05-09T21:22:19.284Z,990.95
2023-05-09T21:27:19.326Z,991.00
2023-05-09T21:32:19.183Z,991.03
2023-05-09T21:37:19.211Z,990.97
2023-05-09T21:42:18.973Z,990.95
2023-05-09T21:47:19.106Z,990.93
2023-05-09T21:52:18.840Z,990.82
2023-05-09T21:57:18.902Z,990.83
2023-05-09T22:02:18.816Z,990.84
2023-05-09T22:07:21.751Z,990.81
2023-05-09T22:12:18.689Z,990.79
2023-05-09T22:17:18.717Z,990.78
2023-05-09T22:22:18.522Z,990.77
2023-05-09T22:27:18.419Z,990.71
2023-05-09T22:32:18.334Z,990.68
2023-05-09T22:37:18.326Z,990.64
2023-05-09T22:42:18.188Z,990.65
2023-05-09T22:47:18.231Z,990.62
2023-05-09T22:52:18.042Z,990.62
2023-05-09T22:57:18.013Z,990.53
2023-05-09T23:02:17.926Z,990.54
2023-05-09T23:07:20.865Z,990.49
2023-05-09T23:12:17.759Z,990.46
2023-05-09T23:17:17.749Z,990.33
2023-05-09T23:22:17.611Z,990.35
2023-05-09T23:27:17.583Z,990.31
2023-05-09T23:32:17.487Z,990.31
2023-05-09T23:37:17.456Z,990.23
2023-05-09T23:42:17.363Z,990.19
2023-05-09T23:47:17.324Z,990.16
2023-05-09T23:52:17.223Z,990.15
2023-05-09T23:57:17.259Z,990.02
